Time,TemperatureF,DewpointF,PressureIn,WindDirection,WindDirectionDegrees,WindSpeedMPH,WindSpeedGustMPH,Humidity,HourlyPrecipIn,Conditions,Clouds,dailyrainin,SoftwareType,DateUTC
2013-07-05 00:01:00,78.0,62.0,-100.00,North,0,9.0,-999.0,59,-99.99,,,-99.99,,2013-07-05 05:01:00,
2013-07-05 00:12:00,78.0,62.0,-100.00,North,0,9.0,-999.0,59,-99.99,,,-99.99,,2013-07-05 05:12:00,
2013-07-05 00:22:00,77.0,63.0,-100.00,North,0,7.0,-999.0,62,-99.99,,,-99.99,,2013-07-05 05:22:00,
2013-07-05 00:33:00,76.0,63.0,-100.00,North,0,6.0,-999.0,63,-99.99,,,-99.99,,2013-07-05 05:33:00,
2013-07-05 00:43:00,76.0,63.0,-100.00,North,0,6.0,-999.0,63,-99.99,,,-99.99,,2013-07-05 05:43:00,
2013-07-05 00:52:00,76.0,63.0,-100.00,North,0,7.0,-999.0,65,-99.99,,,-99.99,,2013-07-05 05:52:00,
2013-07-05 01:02:00,75.0,63.0,-100.00,North,0,6.0,-999.0,66,-99.99,,,-99.99,,2013-07-05 06:02:00,
2013-07-05 01:13:00,75.0,63.0,-100.00,North,0,6.0,-999.0,66,-99.99,,,-99.99,,2013-07-05 06:13:00,
2013-07-05 01:23:00,75.0,63.0,-100.00,North,0,8.0,-999.0,67,-99.99,,,-99.99,,2013-07-05 06:23:00,
2013-07-05 01:34:00,75.0,63.0,-100.00,North,0,6.0,-999.0,67,-99.99,,,-99.99,,2013-07-05 06:34:00,
2013-07-05 01:43:00,75.0,63.0,-100.00,North,0,6.0,-999.0,67,-99.99,,,-99.99,,2013-07-05 06:43:00,
2013-07-05 01:53:00,75.0,64.0,-100.00,North,0,8.0,-999.0,67,-99.99,,,-99.99,,2013-07-05 06:53:00,
2013-07-05 02:02:00,75.0,64.0,-100.00,North,0,6.0,-999.0,67,-99.99,,,-99.99,,2013-07-05 07:02:00,
2013-07-05 02:12:00,75.0,64.0,-100.00,North,0,6.0,-999.0,67,-99.99,,,-99.99,,2013-07-05 07:12:00,
2013-07-05 02:23:00,75.0,64.0,-100.00,North,0,6.0,-999.0,67,-99.99,,,-99.99,,2013-07-05 07:23:00,
2013-07-05 02:34:00,74.0,64.0,-100.00,North,0,6.0,-999.0,71,-99.99,,,-99.99,,2013-07-05 07:34:00,
2013-07-05 02:43:00,74.0,64.0,-100.00,North,0,6.0,-999.0,71,-99.99,,,-99.99,,2013-07-05 07:43:00,
2013-07-05 02:53:00,73.0,64.0,-100.00,North,0,5.0,-999.0,72,-99.99,,,-99.99,,2013-07-05 07:53:00,
2013-07-05 03:23:00,73.0,64.0,-100.00,North,0,5.0,-999.0,73,-99.99,,,-99.99,,2013-07-05 08:23:00,
2013-07-05 03:33:00,73.0,63.0,-100.00,North,0,5.0,-999.0,71,-99.99,,,-99.99,,2013-07-05 08:33:00,
2013-07-05 03:43:00,73.0,63.0,-100.00,North,0,5.0,-999.0,71,-99.99,,,-99.99,,2013-07-05 08:43:00,
2013-07-05 04:05:00,73.0,63.0,-100.00,North,0,7.0,-999.0,72,-99.99,,,-99.99,,2013-07-05 09:05:00,
2013-07-05 04:14:00,73.0,63.0,-100.00,North,0,7.0,-999.0,72,-99.99,,,-99.99,,2013-07-05 09:14:00,
2013-07-05 04:36:00,72.0,64.0,-100.00,North,0,5.0,-999.0,74,-99.99,,,-99.99,,2013-07-05 09:36:00,
2013-07-05 04:45:00,72.0,64.0,-100.00,North,0,5.0,-999.0,74,-99.99,,,-99.99,,2013-07-05 09:45:00,
2013-07-05 04:56:00,71.0,63.0,-100.00,North,0,5.0,-999.0,75,-99.99,,,-99.99,,2013-07-05 09:56:00,
2013-07-05 05:25:00,71.0,64.0,-100.00,North,0,8.0,-999.0,76,-99.99,,,-99.99,,2013-07-05 10:25:00,
2013-07-05 05:35:00,71.0,63.0,-100.00,North,0,10.0,-999.0,75,-99.99,,,-99.99,,2013-07-05 10:35:00,
2013-07-05 05:46:00,71.0,63.0,-100.00,North,0,10.0,-999.0,75,-99.99,,,-99.99,,2013-07-05 10:46:00,
2013-07-05 05:57:00,72.0,64.0,-100.00,North,0,7.0,-999.0,75,-99.99,,,-99.99,,2013-07-05 10:57:00,
2013-07-05 06:05:00,71.0,63.0,-100.00,North,0,6.0,-999.0,77,-99.99,,,-99.99,,2013-07-05 11:05:00,
2013-07-05 06:15:00,71.0,63.0,-100.00,North,0,6.0,-999.0,77,-99.99,,,-99.99,,2013-07-05 11:15:00,
2013-07-05 06:23:00,71.0,64.0,-100.00,North,0,10.0,-999.0,77,-99.99,,,-99.99,,2013-07-05 11:23:00,
2013-07-05 06:36:00,71.0,63.0,-100.00,North,0,7.0,-999.0,76,-99.99,,,-99.99,,2013-07-05 11:36:00,
2013-07-05 06:45:00,71.0,63.0,-100.00,North,0,7.0,-999.0,76,-99.99,,,-99.99,,2013-07-05 11:45:00,
2013-07-05 07:00:00,71.0,64.0,-100.00,North,0,6.0,-999.0,77,-99.99,,,-99.99,,2013-07-05 12:00:00,
2013-07-05 07:05:00,72.0,64.0,-100.00,North,0,8.0,-999.0,76,-99.99,,,-99.99,,2013-07-05 12:05:00,
2013-07-05 07:24:00,73.0,65.0,-100.00,North,0,9.0,-999.0,75,-99.99,,,-99.99,,2013-07-05 12:24:00,
2013-07-05 08:37:00,76.0,66.0,-100.00,North,0,8.0,-999.0,71,-99.99,,,-99.99,,2013-07-05 13:37:00,
2013-07-05 08:46:00,76.0,66.0,-100.00,North,0,8.0,-999.0,71,-99.99,,,-99.99,,2013-07-05 13:46:00,
2013-07-05 09:26:00,80.0,68.0,-100.00,North,0,8.0,-999.0,67,-99.99,,,-99.99,,2013-07-05 14:26:00,
2013-07-05 09:45:00,81.0,68.0,-100.00,North,0,10.0,-999.0,64,-99.99,,,-99.99,,2013-07-05 14:45:00,
2013-07-05 10:05:00,82.0,70.0,-100.00,North,0,7.0,-999.0,66,-99.99,,,-99.99,,2013-07-05 15:05:00,
2013-07-05 10:14:00,82.0,70.0,-100.00,North,0,7.0,-999.0,66,-99.99,,,-99.99,,2013-07-05 15:14:00,
2013-07-05 10:43:00,84.0,69.0,-100.00,North,0,9.0,-999.0,60,-99.99,,,-99.99,,2013-07-05 15:43:00,
2013-07-05 10:53:00,85.0,70.0,-100.00,North,0,6.0,-999.0,61,-99.99,,,-99.99,,2013-07-05 15:53:00,
2013-07-05 11:01:00,85.0,71.0,-100.00,North,0,7.0,-999.0,62,-99.99,,,-99.99,,2013-07-05 16:01:00,
2013-07-05 12:22:00,89.0,68.0,-100.00,North,0,10.0,-999.0,50,-99.99,,,-99.99,,2013-07-05 17:22:00,
2013-07-05 12:33:00,89.0,70.0,-100.00,North,0,4.0,-999.0,53,-99.99,,,-99.99,,2013-07-05 17:33:00,
2013-07-05 12:43:00,89.0,70.0,-100.00,North,0,4.0,-999.0,53,-99.99,,,-99.99,,2013-07-05 17:43:00,
2013-07-05 12:53:00,90.0,71.0,-100.00,North,0,7.0,-999.0,53,-99.99,,,-99.99,,2013-07-05 17:53:00,
2013-07-05 13:01:00,91.0,69.0,-100.00,North,0,9.0,-999.0,49,-99.99,,,-99.99,,2013-07-05 18:01:00,
2013-07-05 13:11:00,91.0,69.0,-100.00,North,0,9.0,-999.0,49,-99.99,,,-99.99,,2013-07-05 18:11:00,
2013-07-05 13:33:00,90.0,68.0,-100.00,North,0,5.0,-999.0,48,-99.99,,,-99.99,,2013-07-05 18:33:00,
2013-07-05 13:43:00,90.0,68.0,-100.00,North,0,5.0,-999.0,48,-99.99,,,-99.99,,2013-07-05 18:43:00,
2013-07-05 13:53:00,89.0,68.0,-100.00,North,0,6.0,-999.0,50,-99.99,,,-99.99,,2013-07-05 18:53:00,
2013-07-05 14:01:00,90.0,67.0,-100.00,North,0,12.0,-999.0,47,-99.99,,,-99.99,,2013-07-05 19:01:00,
2013-07-05 14:22:00,91.0,70.0,-100.00,North,0,6.0,-999.0,50,-99.99,,,-99.99,,2013-07-05 19:22:00,
2013-07-05 14:33:00,90.0,69.0,-100.00,North,0,8.0,-999.0,49,-99.99,,,-99.99,,2013-07-05 19:33:00,
2013-07-05 14:42:00,90.0,69.0,-100.00,North,0,8.0,-999.0,49,-99.99,,,-99.99,,2013-07-05 19:42:00,
2013-07-05 14:53:00,91.0,69.0,-100.00,North,0,9.0,-999.0,48,-99.99,,,-99.99,,2013-07-05 19:53:00,
2013-07-05 15:01:00,91.0,68.0,-100.00,North,0,10.0,-999.0,48,-99.99,,,-99.99,,2013-07-05 20:01:00,
2013-07-05 15:11:00,91.0,68.0,-100.00,North,0,10.0,-999.0,48,-99.99,,,-99.99,,2013-07-05 20:11:00,
2013-07-05 15:22:00,91.0,68.0,-100.00,North,0,9.0,-999.0,47,-99.99,,,-99.99,,2013-07-05 20:22:00,
2013-07-05 15:33:00,91.0,68.0,-100.00,North,0,8.0,-999.0,47,-99.99,,,-99.99,,2013-07-05 20:33:00,
2013-07-05 15:43:00,91.0,68.0,-100.00,North,0,8.0,-999.0,47,-99.99,,,-99.99,,2013-07-05 20:43:00,
2013-07-05 15:53:00,91.0,67.0,-100.00,North,0,11.0,-999.0,45,-99.99,,,-99.99,,2013-07-05 20:53:00,
2013-07-05 16:01:00,92.0,69.0,-100.00,North,0,8.0,-999.0,48,-99.99,,,-99.99,,2013-07-05 21:01:00,
2013-07-05 16:22:00,90.0,72.0,-100.00,North,0,8.0,-999.0,55,-99.99,,,-99.99,,2013-07-05 21:22:00,
2013-07-05 16:34:00,89.0,72.0,-100.00,North,0,6.0,-999.0,56,-99.99,,,-99.99,,2013-07-05 21:34:00,
2013-07-05 16:42:00,89.0,72.0,-100.00,North,0,6.0,-999.0,56,-99.99,,,-99.99,,2013-07-05 21:42:00,
2013-07-05 16:53:00,89.0,71.0,-100.00,North,0,5.0,-999.0,55,-99.99,,,-99.99,,2013-07-05 21:53:00,
2013-07-05 17:01:00,89.0,70.0,-100.00,North,0,9.0,-999.0,53,-99.99,,,-99.99,,2013-07-05 22:01:00,
2013-07-05 17:11:00,89.0,70.0,-100.00,North,0,9.0,-999.0,53,-99.99,,,-99.99,,2013-07-05 22:11:00,
2013-07-05 17:21:00,90.0,71.0,-100.00,North,0,8.0,-999.0,53,-99.99,,,-99.99,,2013-07-05 22:21:00,
2013-07-05 17:33:00,90.0,72.0,-100.00,North,0,7.0,-999.0,56,-99.99,,,-99.99,,2013-07-05 22:33:00,
2013-07-05 17:43:00,90.0,72.0,-100.00,North,0,7.0,-999.0,56,-99.99,,,-99.99,,2013-07-05 22:43:00,
2013-07-05 17:53:00,89.0,72.0,-100.00,North,0,9.0,-999.0,57,-99.99,,,-99.99,,2013-07-05 22:53:00,
2013-07-05 18:02:00,89.0,70.0,-100.00,North,0,9.0,-999.0,53,-99.99,,,-99.99,,2013-07-05 23:02:00,
2013-07-05 18:23:00,89.0,70.0,-100.00,North,0,8.0,-999.0,54,-99.99,,,-99.99,,2013-07-05 23:23:00,
2013-07-05 18:32:00,89.0,70.0,-100.00,North,0,9.0,-999.0,54,-99.99,,,-99.99,,2013-07-05 23:32:00,
2013-07-05 18:43:00,89.0,70.0,-100.00,North,0,9.0,-999.0,54,-99.99,,,-99.99,,2013-07-05 23:43:00,
2013-07-05 18:53:00,89.0,70.0,-100.00,North,0,9.0,-999.0,53,-99.99,,,-99.99,,2013-07-05 23:53:00,
2013-07-05 19:01:00,88.0,70.0,-100.00,North,0,10.0,-999.0,55,-99.99,,,-99.99,,2013-07-06 00:01:00,
2013-07-05 19:22:00,87.0,70.0,-100.00,North,0,10.0,-999.0,57,-99.99,,,-99.99,,2013-07-06 00:22:00,
2013-07-05 19:33:00,87.0,71.0,-100.00,North,0,9.0,-999.0,58,-99.99,,,-99.99,,2013-07-06 00:33:00,
2013-07-05 19:42:00,87.0,71.0,-100.00,North,0,9.0,-999.0,58,-99.99,,,-99.99,,2013-07-06 00:42:00,
2013-07-05 19:53:00,88.0,70.0,-100.00,North,0,9.0,-999.0,56,-99.99,,,-99.99,,2013-07-06 00:53:00,
2013-07-05 20:02:00,88.0,70.0,-100.00,North,0,11.0,-999.0,56,-99.99,,,-99.99,,2013-07-06 01:02:00,
2013-07-05 20:12:00,88.0,70.0,-100.00,North,0,11.0,-999.0,56,-99.99,,,-99.99,,2013-07-06 01:12:00,
2013-07-05 20:22:00,87.0,70.0,-100.00,North,0,11.0,-999.0,56,-99.99,,,-99.99,,2013-07-06 01:22:00,
2013-07-05 20:33:00,87.0,69.0,-100.00,North,0,12.0,-999.0,55,-99.99,,,-99.99,,2013-07-06 01:33:00,
2013-07-05 20:42:00,87.0,69.0,-100.00,North,0,12.0,-999.0,55,-99.99,,,-99.99,,2013-07-06 01:42:00,
2013-07-05 20:53:00,87.0,69.0,-100.00,North,0,13.0,-999.0,55,-99.99,,,-99.99,,2013-07-06 01:53:00,
2013-07-05 21:02:00,86.0,68.0,-100.00,North,0,11.0,-999.0,55,-99.99,,,-99.99,,2013-07-06 02:02:00,
2013-07-05 21:22:00,85.0,68.0,-100.00,North,0,11.0,-999.0,57,-99.99,,,-99.99,,2013-07-06 02:22:00,
2013-07-05 21:33:00,84.0,69.0,-100.00,North,0,11.0,-999.0,60,-99.99,,,-99.99,,2013-07-06 02:33:00,
2013-07-05 21:43:00,84.0,69.0,-100.00,North,0,11.0,-999.0,60,-99.99,,,-99.99,,2013-07-06 02:43:00,
2013-07-05 21:53:00,83.0,68.0,-100.00,North,0,11.0,-999.0,60,-99.99,,,-99.99,,2013-07-06 02:53:00,
2013-07-05 22:02:00,83.0,68.0,-100.00,North,0,10.0,-999.0,62,-99.99,,,-99.99,,2013-07-06 03:02:00,
2013-07-05 22:22:00,82.0,68.0,-100.00,North,0,10.0,-999.0,63,-99.99,,,-99.99,,2013-07-06 03:22:00,
2013-07-05 22:34:00,82.0,68.0,-100.00,North,0,12.0,-999.0,63,-99.99,,,-99.99,,2013-07-06 03:34:00,
2013-07-05 22:43:00,82.0,68.0,-100.00,North,0,12.0,-999.0,63,-99.99,,,-99.99,,2013-07-06 03:43:00,
2013-07-05 22:53:00,82.0,68.0,-100.00,North,0,12.0,-999.0,63,-99.99,,,-99.99,,2013-07-06 03:53:00,
2013-07-05 23:02:00,82.0,68.0,-100.00,North,0,12.0,-999.0,62,-99.99,,,-99.99,,2013-07-06 04:02:00,
2013-07-05 23:12:00,82.0,68.0,-100.00,North,0,12.0,-999.0,62,-99.99,,,-99.99,,2013-07-06 04:12:00,
2013-07-05 23:22:00,81.0,68.0,-100.00,North,0,10.0,-999.0,63,-99.99,,,-99.99,,2013-07-06 04:22:00,
2013-07-05 23:33:00,81.0,68.0,-100.00,North,0,9.0,-999.0,65,-99.99,,,-99.99,,2013-07-06 04:33:00,
2013-07-05 23:43:00,81.0,68.0,-100.00,North,0,9.0,-999.0,65,-99.99,,,-99.99,,2013-07-06 04:43:00,
2013-07-05 23:53:00,80.0,68.0,-100.00,North,0,8.0,-999.0,67,-99.99,,,-99.99,,2013-07-06 04:53:00,